createdAt,value
2022-11-01T00:00:01.121Z,1012.098206
2022-11-01T00:00:59.547Z,1012.105957
2022-11-01T00:01:54.134Z,1012.128662
2022-11-01T00:02:53.900Z,1012.209778
2022-11-01T00:03:48.285Z,1012.112732
2022-11-01T00:04:52.432Z,1012.139832
2022-11-01T00:05:48.594Z,1012.15564
2022-11-01T00:06:50.421Z,1012.15564
2022-11-01T00:07:44.815Z,1012.206543
2022-11-01T00:08:45.936Z,1012.074463
2022-11-01T00:09:38.751Z,1012.120728
2022-11-01T00:10:40.195Z,1012.03949
2022-11-01T00:11:32.640Z,1012.05304
2022-11-01T00:12:34.687Z,1012.118591
2022-11-01T00:13:38.062Z,1012.127502
2022-11-01T00:15:16.467Z,1012.175964
2022-11-01T00:17:04.599Z,1012.045532
2022-11-01T00:17:47.543Z,1012.148132
2022-11-01T00:18:52.974Z,1012.2229
2022-11-01T00:19:50.805Z,1012.17218
2022-11-01T00:20:46.128Z,1012.255554
2022-11-01T00:21:49.698Z,1012.281982
2022-11-01T00:22:49.599Z,1012.28418
2022-11-01T00:23:44.736Z,1012.236816
2022-11-01T00:24:46.386Z,1012.239075
2022-11-01T00:25:43.147Z,1012.196228
2022-11-01T00:26:45.039Z,1012.226746
2022-11-01T00:27:40.537Z,1012.133118
2022-11-01T00:28:44.607Z,1012.22998
2022-11-01T00:29:42.650Z,1012.198486
2022-11-01T00:30:45.495Z,1012.174866
2022-11-01T00:31:37.976Z,1012.163635
2022-11-01T00:32:41.063Z,1012.202026
2022-11-01T00:33:32.774Z,1012.179443
2022-11-01T00:34:35.346Z,1012.190674
2022-11-01T00:35:29.551Z,1012.190674
2022-11-01T00:36:29.205Z,1012.178101
2022-11-01T00:37:29.336Z,1012.159058
2022-11-01T00:38:28.761Z,1012.178101
2022-11-01T00:39:30.459Z,1012.145508
2022-11-01T00:40:29.638Z,1012.134338
2022-11-01T00:41:29.332Z,1012.099731
2022-11-01T00:42:30.081Z,1012.033752
2022-11-01T00:43:30.248Z,1012.057495
2022-11-01T00:44:31.633Z,1012.165833
2022-11-01T00:45:26.772Z,1012.103699
2022-11-01T00:46:30.770Z,1012.150085
2022-11-01T00:47:22.742Z,1012.150085
2022-11-01T00:48:24.717Z,1012.076538
2022-11-01T00:49:16.848Z,1012.0224
2022-11-01T00:50:18.815Z,1011.968262
2022-11-01T00:51:22.860Z,1011.891479
2022-11-01T00:52:26.984Z,1011.891479
2022-11-01T00:53:20.419Z,1011.914063
2022-11-01T00:54:21.985Z,1011.84021
2022-11-01T00:55:23.275Z,1011.852112
2022-11-01T00:56:22.952Z,1011.85614
2022-11-01T00:57:47.082Z,1011.824524
2022-11-01T00:58:27.517Z,1011.793518
2022-11-01T00:59:25.723Z,1011.871765
2022-11-01T01:00:25.190Z,1011.863464
2022-11-01T01:01:20.494Z,1011.80542
2022-11-01T01:02:21.085Z,1011.905701
2022-11-01T01:03:17.555Z,1011.886658
2022-11-01T01:04:17.423Z,1011.831238
2022-11-01T01:05:13.642Z,1011.718384
2022-11-01T01:06:15.017Z,1011.756775
2022-11-01T01:07:11.568Z,1011.806335
2022-11-01T01:08:18.854Z,1011.871826
2022-11-01T01:09:15.116Z,1011.828857
2022-11-01T01:10:20.961Z,1011.824463
2022-11-01T01:11:22.727Z,1011.847595
2022-11-01T01:12:19.197Z,1011.772949
2022-11-01T01:14:17.024Z,1011.784302
2022-11-01T01:15:26.536Z,1011.818787
2022-11-01T01:16:28.586Z,1011.725586
2022-11-01T01:17:33.773Z,1011.782776
2022-11-01T01:18:26.491Z,1011.760254
2022-11-01T01:19:24.528Z,1011.733093
2022-11-01T01:20:33.840Z,1011.763916
2022-11-01T01:21:35.793Z,1011.767029
2022-11-01T01:22:30.889Z,1011.69696
2022-11-01T01:24:30.097Z,1011.678223
2022-11-01T01:25:25.706Z,1011.662537
2022-11-01T01:26:20.723Z,1011.739868
2022-11-01T01:27:21.704Z,1011.651123
2022-11-01T01:28:23.743Z,1011.763916
2022-11-01T01:29:24.484Z,1011.653503
2022-11-01T01:30:22.995Z,1011.703003
2022-11-01T01:31:25.693Z,1011.738037
2022-11-01T01:32:20.245Z,1011.73584
2022-11-01T01:33:19.853Z,1011.663696
2022-11-01T01:34:19.372Z,1011.62085
2022-11-01T01:35:19.423Z,1011.674988
2022-11-01T01:37:03.352Z,1011.735413
2022-11-01T01:37:43.219Z,1011.660217
2022-11-01T01:39:43.159Z,1011.629272
2022-11-01T01:40:38.516Z,1011.57074
2022-11-01T01:41:38.513Z,1011.577576
2022-11-01T01:42:40.383Z,1011.410583
2022-11-01T01:44:33.411Z,1011.487244
2022-11-01T01:45:34.455Z,1011.452759
2022-11-01T01:46:30.042Z,1011.50238
2022-11-01T01:47:30.139Z,1011.524902
2022-11-01T01:49:26.379Z,1011.579041
2022-11-01T01:50:23.851Z,1011.531616
2022-11-01T01:51:22.953Z,1011.550842
2022-11-01T01:52:23.593Z,1011.520386
2022-11-01T01:53:25.573Z,1011.55542
2022-11-01T01:54:27.436Z,1011.501282
2022-11-01T01:55:20.479Z,1011.461731
2022-11-01T01:56:20.539Z,1011.54187
2022-11-01T01:57:28.720Z,1011.527039
2022-11-01T01:59:28.995Z,1011.550842
2022-11-01T02:00:38.088Z,1011.501282
2022-11-01T02:01:30.156Z,1011.547424
2022-11-01T02:02:32.917Z,1011.509094
2022-11-01T02:04:31.471Z,1011.444397
2022-11-01T02:05:31.126Z,1011.444397
2022-11-01T02:06:26.531Z,1011.487244
2022-11-01T02:07:30.349Z,1011.514282
2022-11-01T02:08:27.621Z,1011.530151
2022-11-01T02:09:31.815Z,1011.561035
2022-11-01T02:10:27.627Z,1011.486572
2022-11-01T02:11:25.692Z,1011.540649
2022-11-01T02:12:27.398Z,1011.47522
2022-11-01T02:13:21.023Z,1011.46405
2022-11-01T02:14:24.403Z,1011.433105
2022-11-01T02:15:23.661Z,1011.421082
2022-11-01T02:16:18.323Z,1011.397705
2022-11-01T02:17:18.503Z,1011.393005
2022-11-01T02:18:16.226Z,1011.335449
2022-11-01T02:19:18.422Z,1011.373779
2022-11-01T02:20:15.869Z,1011.354675
2022-11-01T02:21:19.491Z,1011.400818
2022-11-01T02:22:18.535Z,1011.300537
2022-11-01T02:24:58.997Z,1011.302673
2022-11-01T02:25:55.177Z,1011.286987
2022-11-01T02:26:50.997Z,1011.357971
2022-11-01T02:27:53.480Z,1011.403625
2022-11-01T02:28:45.924Z,1011.417297
2022-11-01T02:29:51.070Z,1011.40741
2022-11-01T02:30:44.631Z,1011.358887
2022-11-01T02:32:30.577Z,1011.397217
2022-11-01T02:33:09.549Z,1011.369324
2022-11-01T02:34:12.248Z,1011.439148
2022-11-01T02:35:11.794Z,1011.45282
2022-11-01T02:36:09.327Z,1011.486816
2022-11-01T02:37:09.345Z,1011.427246
2022-11-01T02:38:08.308Z,1011.410583
2022-11-01T02:39:04.457Z,1011.370117
2022-11-01T02:40:05.137Z,1011.330444
2022-11-01T02:41:01.342Z,1011.364258
2022-11-01T02:42:01.025Z,1011.394836
2022-11-01T02:42:57.778Z,1011.382874
2022-11-01T02:44:06.176Z,1011.394165
2022-11-01T02:45:00.933Z,1011.351196
2022-11-01T02:46:00.159Z,1011.295593
2022-11-01T02:47:08.104Z,1011.388062
2022-11-01T02:48:04.574Z,1011.326416
2022-11-01T02:49:08.318Z,1011.407654
2022-11-01T02:50:05.166Z,1011.342224
2022-11-01T02:51:06.952Z,1011.377319
2022-11-01T02:52:02.338Z,1011.396301
2022-11-01T02:53:04.946Z,1011.315186
2022-11-01T02:54:05.294Z,1011.385071
2022-11-01T02:54:59.247Z,1011.291687
2022-11-01T02:56:02.193Z,1011.36145
2022-11-01T02:56:54.029Z,1011.415527
2022-11-01T02:57:53.465Z,1011.369324
2022-11-01T02:59:48.427Z,1011.353455
2022-11-01T03:00:44.075Z,1011.272339
2022-11-01T03:01:46.800Z,1011.391785
2022-11-01T03:02:45.857Z,1011.345703
2022-11-01T03:03:48.393Z,1011.369324
2022-11-01T03:04:43.743Z,1011.396179
2022-11-01T03:05:45.108Z,1011.264526
2022-11-01T03:06:41.020Z,1011.36145
2022-11-01T03:08:27.418Z,1011.36322
2022-11-01T03:09:10.252Z,1011.349731
2022-11-01T03:10:13.167Z,1011.389648
2022-11-01T03:11:11.825Z,1011.403198
2022-11-01T03:12:08.926Z,1011.410583
2022-11-01T03:13:10.233Z,1011.448914
2022-11-01T03:14:05.426Z,1011.36322
2022-11-01T03:15:04.346Z,1011.440369
2022-11-01T03:15:59.040Z,1011.470886
2022-11-01T03:17:01.530Z,1011.447144
2022-11-01T03:19:49.245Z,1011.421143
2022-11-01T03:20:43.965Z,1011.438721
2022-11-01T03:21:45.444Z,1011.427368
2022-11-01T03:22:41.950Z,1011.437622
2022-11-01T03:23:47.217Z,1011.381287
2022-11-01T03:24:46.057Z,1011.488831
2022-11-01T03:25:42.193Z,1011.468445
2022-11-01T03:26:45.132Z,1011.481934
2022-11-01T03:27:38.661Z,1011.477478
2022-11-01T03:28:41.741Z,1011.542847
2022-11-01T03:29:36.972Z,1011.564331
2022-11-01T03:30:38.189Z,1011.540527
2022-11-01T03:31:38.272Z,1011.478638
2022-11-01T03:32:39.838Z,1011.56366
2022-11-01T03:33:34.007Z,1011.471191
2022-11-01T03:34:33.632Z,1011.482544
2022-11-01T03:35:28.988Z,1011.536682
2022-11-01T03:36:28.091Z,1011.466675
2022-11-01T03:37:22.762Z,1011.582397
2022-11-01T03:39:16.961Z,1011.617798
2022-11-01T03:40:19.115Z,1011.552368
2022-11-01T03:41:14.474Z,1011.598145
2022-11-01T03:42:15.509Z,1011.636536
2022-11-01T03:43:11.027Z,1011.683044
2022-11-01T03:44:15.129Z,1011.683044
2022-11-01T03:45:10.408Z,1011.656067
2022-11-01T03:46:13.784Z,1011.621765
2022-11-01T03:47:14.618Z,1011.669128
2022-11-01T03:48:10.803Z,1011.626221
2022-11-01T03:49:10.176Z,1011.683899
2022-11-01T03:50:46.878Z,1011.588989
2022-11-01T03:51:31.436Z,1011.740173
2022-11-01T03:52:30.393Z,1011.701721
2022-11-01T03:54:35.877Z,1011.755859
2022-11-01T03:55:31.190Z,1011.674072
2022-11-01T03:56:31.018Z,1011.866272
2022-11-01T03:57:30.605Z,1011.88092
2022-11-01T03:58:26.375Z,1011.850159
2022-11-01T03:59:29.927Z,1011.834473
2022-11-01T04:00:25.034Z,1011.89325
2022-11-01T04:01:22.711Z,1011.816711
2022-11-01T04:02:20.471Z,1011.832458
2022-11-01T04:03:19.439Z,1011.732605
2022-11-01T04:05:17.211Z,1011.915283
2022-11-01T04:06:14.887Z,1011.852783
2022-11-01T04:07:12.861Z,1011.861206
2022-11-01T04:08:10.516Z,1011.937805
2022-11-01T04:09:08.600Z,1011.915283
2022-11-01T04:10:06.030Z,1011.988037
2022-11-01T04:11:05.506Z,1011.99646
2022-11-01T04:12:03.303Z,1011.864075
2022-11-01T04:13:03.249Z,1011.924927
2022-11-01T04:14:00.808Z,1011.966675
2022-11-01T04:14:58.893Z,1011.971558
2022-11-01T04:15:57.532Z,1012.077576
2022-11-01T04:16:55.482Z,1012.005005
2022-11-01T04:17:52.849Z,1011.985962
2022-11-01T04:19:55.724Z,1011.981384
2022-11-01T04:20:57.118Z,1011.965637
2022-11-01T04:22:01.630Z,1012.033203
2022-11-01T04:23:00.373Z,1012.017395
2022-11-01T04:24:59.389Z,1012.041443
2022-11-01T04:25:58.169Z,1011.882141
2022-11-01T04:26:58.452Z,1011.92865
2022-11-01T04:29:19.361Z,1012.025635
2022-11-01T04:30:12.289Z,1012.101929
2022-11-01T04:31:16.827Z,1011.956543
2022-11-01T04:32:16.528Z,1012.041443
2022-11-01T04:33:19.683Z,1012.044373
2022-11-01T04:34:21.741Z,1012.016174
2022-11-01T04:35:18.561Z,1012.138123
2022-11-01T04:36:19.537Z,1012.125854
2022-11-01T04:37:15.316Z,1012.197083
2022-11-01T04:40:53.691Z,1012.061157
2022-11-01T04:41:52.886Z,1012.098572
2022-11-01T08:19:43.300Z,1016.223572
2022-11-01T08:20:22.142Z,1016.211426
2022-11-01T08:21:20.515Z,1016.129639
2022-11-01T08:22:14.116Z,1016.294739
2022-11-01T08:23:13.273Z,1016.319458
2022-11-01T08:24:06.741Z,1016.392029
2022-11-01T08:25:03.780Z,1016.354126
2022-11-01T08:26:01.345Z,1016.38501
2022-11-01T08:26:55.714Z,1016.334229
2022-11-01T08:27:51.985Z,1016.331055
2022-11-01T08:29:42.820Z,1016.394958
2022-11-01T08:30:39.129Z,1016.336487
2022-11-01T08:31:31.990Z,1016.416992
2022-11-01T08:32:32.094Z,1016.624023
2022-11-01T17:09:29.726Z,1017.871643
2022-11-01T17:10:08.365Z,1017.893555
2022-11-01T17:11:04.632Z,1017.978699
2022-11-01T17:12:04.658Z,1017.83374
2022-11-01T17:12:59.942Z,1017.902954
2022-11-01T21:05:23.495Z,1018.169556
2022-11-01T21:06:06.183Z,1018.195374
2022-11-01T21:07:05.955Z,1018.27063
2022-11-01T21:08:04.003Z,1018.29541
2022-11-01T21:08:56.792Z,1018.352722
2022-11-01T21:10:01.581Z,1018.306213
2022-11-01T21:10:55.074Z,1018.415833
2022-11-01T21:11:51.838Z,1018.397705
2022-11-01T21:12:44.459Z,1018.363525
2022-11-01T21:13:42.046Z,1018.442627
2022-11-01T21:15:29.506Z,1018.354126
2022-11-01T21:16:23.855Z,1018.301331
2022-11-01T21:17:20.515Z,1018.413086
2022-11-01T21:18:14.825Z,1018.330933
2022-11-01T21:19:15.783Z,1018.382202
2022-11-01T21:21:00.510Z,1018.356323
2022-11-01T21:22:00.962Z,1018.351501
2022-11-01T21:22:54.502Z,1018.376648
2022-11-01T21:23:53.384Z,1018.274963
2022-11-01T21:25:44.652Z,1018.348877
2022-11-01T21:26:41.930Z,1018.36377
2022-11-01T21:27:46.852Z,1018.436157
2022-11-01T21:28:48.500Z,1018.429749
2022-11-01T21:30:49.060Z,1018.410889
2022-11-01T21:31:39.550Z,1018.375916
2022-11-01T21:32:38.654Z,1018.360046
2022-11-01T21:33:31.685Z,1018.41803
2022-11-01T21:35:29.394Z,1018.33728
2022-11-01T21:36:18.991Z,1018.37207
2022-11-01T21:37:17.722Z,1018.430908
2022-11-01T21:38:11.117Z,1018.328125
2022-11-01T21:39:11.104Z,1018.365967
2022-11-01T21:42:25.699Z,1018.364136
2022-11-01T21:43:09.739Z,1018.317017
2022-11-01T21:44:07.727Z,1018.383484
2022-11-01T21:45:06.331Z,1018.33728
2022-11-01T21:46:02.179Z,1018.371399
2022-11-01T21:47:04.392Z,1018.331909
2022-11-01T21:47:58.811Z,1018.326904
2022-11-01T21:48:58.156Z,1018.311096
2022-11-01T21:50:56.938Z,1018.364868
2022-11-01T21:51:52.026Z,1018.28833
2022-11-01T21:52:52.796Z,1018.2724
2022-11-01T21:53:48.124Z,1018.228088
2022-11-01T21:54:47.793Z,1018.308777
2022-11-01T21:55:42.317Z,1018.300354
2022-11-01T21:56:51.118Z,1018.191162
2022-11-01T21:57:50.307Z,1018.150818
2022-11-01T21:58:50.003Z,1018.192322
2022-11-01T22:01:52.928Z,1018.202271
2022-11-01T22:02:47.174Z,1018.161865
2022-11-01T22:03:49.341Z,1018.193848
2022-11-01T22:05:51.998Z,1018.225647
2022-11-01T22:06:49.544Z,1018.276855
2022-11-01T22:07:48.802Z,1018.099426
2022-11-01T22:08:43.876Z,1018.123962
2022-11-01T22:10:39.904Z,1018.126282
2022-11-01T22:11:36.530Z,1018.08551
2022-11-01T22:12:35.523Z,1018.171448
2022-11-01T22:13:35.059Z,1018.082153
2022-11-01T22:14:26.663Z,1018.098145
2022-11-01T22:15:34.995Z,1018.038208
2022-11-01T22:16:38.056Z,1018.000244
2022-11-01T22:17:39.499Z,1018.022339
2022-11-01T22:18:35.192Z,1018.098145
2022-11-01T22:19:34.793Z,1018.02832
2022-11-01T22:20:31.075Z,1017.971863
2022-11-01T22:21:34.875Z,1017.990417
2022-11-01T22:22:36.550Z,1018.063599
2022-11-01T22:23:39.362Z,1018.082153
2022-11-01T22:25:32.276Z,1017.906982
2022-11-01T22:26:28.412Z,1017.89856
2022-11-01T22:27:29.402Z,1017.987793
2022-11-01T22:28:23.813Z,1017.952454
2022-11-01T22:29:23.261Z,1017.987793
2022-11-01T22:31:22.209Z,1017.940063
2022-11-01T22:32:19.310Z,1017.970032
2022-11-01T22:33:23.000Z,1018.080627
2022-11-01T22:34:14.643Z,1018.023865
2022-11-01T22:35:58.525Z,1018.032104
2022-11-01T22:36:38.041Z,1017.912354
2022-11-01T22:37:38.880Z,1017.950256
2022-11-01T22:38:37.227Z,1017.896423
2022-11-01T22:40:48.927Z,1017.816833
2022-11-01T22:41:43.529Z,1017.806946
2022-11-01T22:42:42.601Z,1017.88269
2022-11-01T22:43:38.336Z,1017.9021
2022-11-01T22:44:40.359Z,1017.842224
2022-11-01T22:45:37.060Z,1017.826111
2022-11-01T22:46:37.575Z,1017.880066
2022-11-01T22:47:32.348Z,1017.855774
2022-11-01T22:48:29.256Z,1017.807556
2022-11-01T22:49:28.997Z,1017.712952
2022-11-01T22:52:40.307Z,1017.786926
2022-11-01T22:53:41.532Z,1017.770935
2022-11-01T22:54:43.263Z,1017.753784
2022-11-01T22:55:46.084Z,1017.744019
2022-11-01T23:05:53.145Z,1017.722595
2022-11-01T23:06:18.030Z,1017.61145
2022-11-01T23:09:32.808Z,1017.447937
2022-11-01T23:14:48.763Z,1017.572388
2022-11-01T23:15:29.896Z,1017.46106
2022-11-01T23:19:49.020Z,1017.444885
2022-11-01T23:20:31.691Z,1017.389587
2022-11-01T23:21:29.900Z,1017.402222
2022-11-01T23:22:29.746Z,1017.292297
2022-11-01T23:23:25.920Z,1017.495789
2022-11-01T23:24:27.645Z,1017.547485
2022-11-01T23:25:22.172Z,1017.456787
2022-11-01T23:26:21.061Z,1017.45166
2022-11-01T23:27:17.341Z,1017.476501
2022-11-01T23:28:17.118Z,1017.407471
2022-11-01T23:29:13.097Z,1017.31189
2022-11-01T23:30:16.155Z,1017.405701
2022-11-01T23:31:12.479Z,1017.375
2022-11-01T23:32:17.264Z,1017.453613
2022-11-01T23:33:11.655Z,1017.421692
2022-11-01T23:34:16.927Z,1017.33905
